Time;durP1;ratioP1;P1;durP2;ratioP2;P2;SDS_P1;SDS_P2;PMS_P1;PMS_P2;Temp;Humidity;BMP_temperature;BMP_pressure;BME280_temperature;BME280_humidity;BME280_pressure;Samples;Min_cycle;Max_cycle;Signal;HPM_P1;HPM_P2
2024/03/25 00:01:55;;;;;;;0.30;0.20;;;;;;;9.08;74.17;99477.53;5072612;28;20454;-50
2024/03/25 00:04:22;;;;;;;0.30;0.20;;;;;;;8.98;74.95;99478.78;5071467;28;20220;-50
2024/03/25 00:06:49;;;;;;;0.30;0.17;;;;;;;8.72;75.68;99482.31;5062624;28;20219;-49
2024/03/25 00:09:14;;;;;;;0.30;0.20;;;;;;;8.91;73.85;99477.28;5072614;28;20844;-49
2024/03/25 00:11:43;;;;;;;0.30;0.20;;;;;;;8.97;74.66;99470.88;5072085;28;20493;-48
2024/03/25 00:14:09;;;;;;;0.30;0.20;;;;;;;8.78;75.55;99487.44;5072760;28;20326;-49
2024/03/25 00:16:35;;;;;;;0.30;0.20;;;;;;;8.73;75.99;99485.84;5066700;28;20450;-49
2024/03/25 00:19:01;;;;;;;0.30;0.20;;;;;;;8.79;76.25;99483.88;5066086;28;20613;-49
2024/03/25 00:21:27;;;;;;;0.30;0.17;;;;;;;9.11;75.23;99481.88;5071844;28;20850;-49
2024/03/25 00:23:56;;;;;;;0.30;0.20;;;;;;;8.70;74.18;99486.81;5072496;28;20212;-49
2024/03/25 00:26:24;;;;;;;0.30;0.20;;;;;;;8.76;73.66;99485.72;5057623;28;20239;-49
2024/03/25 00:28:50;;;;;;;0.30;0.20;;;;;;;8.70;74.60;99491.25;5072390;28;20469;-49
2024/03/25 00:31:15;;;;;;;0.30;0.20;;;;;;;8.84;73.99;99489.84;5071810;28;20893;-49
2024/03/25 00:33:41;;;;;;;0.30;0.20;;;;;;;8.75;73.44;99479.56;5068032;28;20265;-49
2024/03/25 00:36:07;;;;;;;0.30;0.20;;;;;;;8.73;73.53;99480.53;5055525;28;20208;-49
2024/03/25 00:38:33;;;;;;;0.30;0.20;;;;;;;8.59;73.82;99486.31;5072205;28;20223;-49
2024/03/25 00:40:58;;;;;;;0.30;0.20;;;;;;;8.73;73.33;99485.84;5067861;28;20484;-49
2024/03/25 00:43:24;;;;;;;0.30;0.20;;;;;;;8.52;73.99;99483.00;5072129;28;20215;-49
2024/03/25 00:45:49;;;;;;;0.30;0.20;;;;;;;8.56;74.17;99481.13;5071541;28;20651;-49
2024/03/25 00:48:15;;;;;;;0.30;0.20;;;;;;;8.55;74.02;99480.25;5066966;28;20212;-49
2024/03/25 00:50:40;;;;;;;0.53;0.50;;;;;;;8.38;74.71;99481.75;5063294;28;20315;-49
2024/03/25 00:53:07;;;;;;;0.30;0.20;;;;;;;8.49;75.02;99469.84;5065108;28;20215;-49
2024/03/25 00:55:34;;;;;;;0.30;0.20;;;;;;;8.54;74.71;99481.16;5061850;28;20204;-49
2024/03/25 00:58:02;;;;;;;0.30;0.20;;;;;;;8.49;75.19;99476.94;5064174;28;20461;-49
2024/03/25 01:00:27;;;;;;;0.30;0.20;;;;;;;8.23;75.45;99476.00;5028279;28;20489;-49
2024/03/25 01:02:53;;;;;;;0.30;0.17;;;;;;;8.32;75.44;99480.97;5071668;28;20844;-49
2024/03/25 01:05:18;;;;;;;0.30;0.20;;;;;;;8.24;75.75;99469.78;5071218;28;20235;-49
2024/03/25 01:07:44;;;;;;;0.30;0.20;;;;;;;8.17;76.21;99473.53;5071686;28;20231;-49
2024/03/25 01:10:09;;;;;;;0.30;0.20;;;;;;;8.23;76.14;99475.13;5071225;28;20278;-49
2024/03/25 01:12:35;;;;;;;0.30;0.20;;;;;;;8.25;74.86;99473.28;5063096;28;20726;-49
2024/03/25 01:15:02;;;;;;;0.30;0.20;;;;;;;8.37;74.44;99472.94;5061320;28;20455;-49
2024/03/25 01:17:28;;;;;;;0.30;0.20;;;;;;;8.28;74.36;99474.06;5056394;28;20668;-49
2024/03/25 01:19:53;;;;;;;0.30;0.20;;;;;;;8.19;74.88;99469.03;5071284;28;20492;-49
2024/03/25 01:22:19;;;;;;;0.30;0.20;;;;;;;8.09;75.08;99470.28;5071498;28;20227;-47
2024/03/25 01:24:44;;;;;;;0.30;0.20;;;;;;;8.22;74.95;99473.38;5070851;28;20273;-48
2024/03/25 01:27:10;;;;;;;0.30;0.20;;;;;;;8.26;74.19;99480.31;5056411;28;20734;-50
2024/03/25 01:29:35;;;;;;;0.30;0.20;;;;;;;8.23;74.00;99469.84;5066573;28;20204;-50
2024/03/25 01:32:02;;;;;;;0.30;0.20;;;;;;;8.07;74.84;99464.13;5063670;28;20222;-49
2024/03/25 01:34:28;;;;;;;0.30;0.20;;;;;;;8.03;75.61;99471.31;5071218;28;20212;-49
2024/03/25 01:36:54;;;;;;;0.30;0.10;;;;;;;7.93;75.38;99463.69;5071248;28;20785;-49
2024/03/25 01:39:19;;;;;;;0.30;0.20;;;;;;;7.83;75.86;99467.56;5071252;28;20955;-49
2024/03/25 01:41:45;;;;;;;0.30;0.20;;;;;;;7.93;76.68;99467.22;5070933;28;20314;-49
2024/03/25 01:44:11;;;;;;;0.30;0.20;;;;;;;7.97;76.02;99463.59;5061804;28;20216;-49
2024/03/25 01:46:37;;;;;;;0.30;0.10;;;;;;;7.94;76.87;99466.28;5070796;28;20315;-49
2024/03/25 01:49:03;;;;;;;0.30;0.20;;;;;;;7.86;76.94;99465.69;5071020;28;20230;-49
2024/03/25 01:51:29;;;;;;;0.30;0.20;;;;;;;7.92;77.86;99461.97;5068802;28;20490;-49
2024/03/25 01:53:56;;;;;;;0.30;0.20;;;;;;;7.89;76.98;99470.88;5070964;28;20458;-49
2024/03/25 01:56:24;;;;;;;0.30;0.20;;;;;;;8.12;76.78;99469.31;5054382;28;20455;-50
2024/03/25 01:58:50;;;;;;;0.30;0.20;;;;;;;8.17;75.67;99467.38;5044709;28;20450;-49
2024/03/25 02:01:15;;;;;;;0.30;0.20;;;;;;;8.05;76.15;99470.41;5070968;28;20957;-49
2024/03/25 02:03:44;;;;;;;0.30;0.20;;;;;;;7.82;77.80;99469.34;5064471;28;20203;-49
2024/03/25 02:06:13;;;;;;;0.30;0.20;;;;;;;7.73;77.69;99469.63;5070742;28;20626;-49
2024/03/25 02:08:41;;;;;;;0.30;0.17;;;;;;;7.80;78.01;99470.28;5072038;28;20813;-50
2024/03/25 02:11:06;;;;;;;0.30;0.20;;;;;;;7.76;78.29;99472.16;5070695;28;20543;-50
2024/03/25 02:13:32;;;;;;;0.30;0.20;;;;;;;7.80;77.95;99465.84;5053895;28;20496;-49
2024/03/25 02:15:58;;;;;;;0.30;0.20;;;;;;;7.82;78.24;99474.66;5058871;28;20244;-49
2024/03/25 02:18:23;;;;;;;0.30;0.20;;;;;;;7.88;77.85;99473.56;5070954;28;20289;-50
2024/03/25 02:20:49;;;;;;;0.30;0.20;;;;;;;7.93;78.27;99469.00;5070664;28;20612;-49
2024/03/25 02:23:14;;;;;;;0.30;0.20;;;;;;;7.89;78.00;99470.00;5065659;28;20290;-49
2024/03/25 02:25:42;;;;;;;0.30;0.20;;;;;;;7.95;78.36;99461.91;5056007;28;20225;-49
2024/03/25 02:28:08;;;;;;;0.30;0.20;;;;;;;7.85;78.53;99465.75;5071957;28;20336;-49
2024/03/25 02:30:34;;;;;;;0.30;0.20;;;;;;;7.73;78.59;99470.47;5066590;28;20532;-49
2024/03/25 02:32:59;;;;;;;0.30;0.20;;;;;;;7.76;78.98;99469.53;5074675;28;20454;-49
2024/03/25 02:35:26;;;;;;;0.30;0.20;;;;;;;8.08;78.25;99470.28;5074585;28;20215;-49
2024/03/25 02:37:53;;;;;;;0.30;0.20;;;;;;;7.81;78.00;99472.00;5074529;28;20226;-49
2024/03/25 02:40:19;;;;;;;0.30;0.20;;;;;;;7.98;77.57;99475.03;5074272;28;20485;-49
2024/03/25 02:42:45;;;;;;;0.30;0.20;;;;;;;7.80;77.71;99480.88;5074374;28;20468;-50
2024/03/25 02:45:11;;;;;;;0.30;0.20;;;;;;;7.69;77.77;99473.28;5061949;28;20482;-49
2024/03/25 02:47:36;;;;;;;0.30;0.20;;;;;;;7.70;78.51;99478.53;5074282;28;20458;-49
2024/03/25 02:50:02;;;;;;;0.30;0.20;;;;;;;7.62;77.83;99480.50;5071164;28;20247;-49
2024/03/25 02:52:28;;;;;;;0.30;0.20;;;;;;;7.54;77.91;99484.28;5059277;28;20591;-49
2024/03/25 02:54:56;;;;;;;0.30;0.20;;;;;;;7.43;78.47;99484.63;5069545;28;20596;-49
2024/03/25 02:57:22;;;;;;;0.30;0.20;;;;;;;7.27;79.05;99480.69;5061915;28;20223;-49
2024/03/25 02:59:47;;;;;;;0.30;0.10;;;;;;;7.78;77.82;99475.63;5071736;28;20542;-49
2024/03/25 03:02:13;;;;;;;0.30;0.20;;;;;;;7.50;78.64;99472.06;5061378;28;20245;-49
2024/03/25 03:04:38;;;;;;;0.30;0.20;;;;;;;7.40;78.64;99480.28;5073595;28;20298;-49
2024/03/25 03:07:04;;;;;;;0.30;0.20;;;;;;;7.21;79.42;99468.50;5074014;28;20294;-49
2024/03/25 03:09:30;;;;;;;0.30;0.20;;;;;;;7.15;80.52;99468.69;5073069;28;20302;-49
2024/03/25 03:11:55;;;;;;;0.30;0.20;;;;;;;7.04;80.81;99466.31;5070689;28;20254;-49
2024/03/25 03:14:21;;;;;;;0.30;0.20;;;;;;;6.82;81.80;99468.66;5067790;28;20212;-49
2024/03/25 03:16:47;;;;;;;0.30;0.20;;;;;;;6.72;83.04;99482.19;5074023;28;20257;-49
2024/03/25 03:19:12;;;;;;;0.30;0.20;;;;;;;6.56;82.51;99475.53;5073525;28;20251;-49
2024/03/25 03:21:38;;;;;;;0.30;0.13;;;;;;;6.43;83.86;99475.84;5051119;28;20238;-49
2024/03/25 03:24:04;;;;;;;0.30;0.20;;;;;;;6.20;84.12;99478.19;5051435;28;20217;-49
2024/03/25 03:26:30;;;;;;;0.30;0.20;;;;;;;5.90;85.20;99480.66;5060040;28;20226;-49
2024/03/25 03:28:56;;;;;;;0.30;0.20;;;;;;;5.86;86.39;99478.94;5057942;28;20451;-51
2024/03/25 03:31:22;;;;;;;0.30;0.20;;;;;;;5.66;86.28;99486.44;5053720;28;20869;-49
2024/03/25 03:33:48;;;;;;;0.30;0.20;;;;;;;5.60;87.03;99492.69;5067730;28;20454;-49
2024/03/25 03:36:18;;;;;;;0.30;0.20;;;;;;;5.50;86.67;99487.66;5073455;28;20216;-49
2024/03/25 03:38:44;;;;;;;0.30;0.20;;;;;;;5.25;87.70;99487.28;5056505;28;20537;-49
2024/03/25 03:41:10;;;;;;;0.30;0.20;;;;;;;5.37;87.58;99491.44;5051098;28;20992;-49
2024/03/25 03:43:36;;;;;;;0.30;0.20;;;;;;;5.21;88.47;99489.13;5068136;28;20704;-49
2024/03/25 03:46:02;;;;;;;0.30;0.20;;;;;;;5.09;87.76;99491.13;5061555;28;20271;-49
2024/03/25 03:48:28;;;;;;;0.30;0.20;;;;;;;4.92;88.23;99491.44;5049033;28;20611;-50
2024/03/25 03:50:54;;;;;;;0.30;0.20;;;;;;;4.86;88.90;99489.78;5057975;28;20483;-50
2024/03/25 03:53:20;;;;;;;0.30;0.20;;;;;;;4.85;88.91;99490.69;5065954;28;20811;-49
2024/03/25 03:55:55;;;;;;;0.30;0.20;;;;;;;4.80;89.39;99491.66;5041479;28;20220;-50
2024/03/25 03:58:21;;;;;;;0.30;0.20;;;;;;;4.73;89.11;99485.63;5055083;28;20453;-50
2024/03/25 04:00:47;;;;;;;0.30;0.20;;;;;;;4.70;89.08;99478.66;5063340;28;20486;-49
2024/03/25 04:03:13;;;;;;;0.30;0.20;;;;;;;4.60;89.58;99479.72;5067656;28;20466;-50
2024/03/25 04:05:38;;;;;;;0.30;0.20;;;;;;;4.58;89.82;99480.66;5057279;28;20486;-49
2024/03/25 04:08:04;;;;;;;0.30;0.20;;;;;;;4.69;89.92;99482.19;5055849;28;20686;-49
2024/03/25 04:10:30;;;;;;;0.30;0.20;;;;;;;4.51;90.30;99474.59;5060648;28;20246;-50
2024/03/25 04:12:56;;;;;;;0.30;0.10;;;;;;;4.37;90.15;99479.25;5059620;28;20512;-50
2024/03/25 04:15:22;;;;;;;0.80;0.80;;;;;;;4.42;89.93;99485.31;5053594;28;20456;-50
2024/03/25 04:17:49;;;;;;;0.30;0.20;;;;;;;4.24;89.96;99475.94;5060295;28;20466;-49
2024/03/25 04:20:15;;;;;;;0.30;0.10;;;;;;;4.15;90.60;99478.72;5072803;28;20494;-50
2024/03/25 04:22:45;;;;;;;0.30;0.10;;;;;;;4.16;91.45;99469.94;5072528;28;20473;-49
2024/03/25 04:25:11;;;;;;;0.30;0.20;;;;;;;4.16;90.89;99470.81;5065505;28;20495;-50
2024/03/25 04:27:43;;;;;;;0.30;0.20;;;;;;;4.11;91.39;99466.50;5066870;28;20458;-51
2024/03/25 04:30:11;;;;;;;0.30;0.10;;;;;;;4.05;90.44;99469.25;5072271;28;20493;-51
2024/03/25 04:32:38;;;;;;;0.30;0.10;;;;;;;3.95;90.67;99472.91;5064436;28;20457;-51
2024/03/25 04:35:06;;;;;;;0.30;0.20;;;;;;;4.01;91.54;99468.44;5053169;28;20528;-51
2024/03/25 04:37:32;;;;;;;0.30;0.17;;;;;;;3.95;91.66;99476.38;5070441;28;20458;-49
2024/03/25 04:39:58;;;;;;;0.30;0.20;;;;;;;3.68;91.77;99477.66;5072080;28;20489;-49
2024/03/25 04:42:26;;;;;;;0.30;0.10;;;;;;;3.91;92.11;99479.97;5072026;28;20466;-49
2024/03/25 04:44:51;;;;;;;0.30;0.20;;;;;;;3.78;92.38;99479.28;5071913;28;20610;-49
2024/03/25 04:47:18;;;;;;;0.30;0.20;;;;;;;3.76;91.52;99486.31;5071867;28;20461;-49
2024/03/25 04:49:44;;;;;;;0.30;0.20;;;;;;;3.74;91.33;99492.50;5071113;28;20289;-49
2024/03/25 04:52:12;;;;;;;0.30;0.17;;;;;;;3.78;91.34;99492.41;5056470;28;20536;-49
2024/03/25 04:54:38;;;;;;;0.30;0.10;;;;;;;3.53;92.02;99489.25;5069429;28;20454;-49
2024/03/25 04:57:05;;;;;;;0.30;0.20;;;;;;;3.58;92.09;99494.47;5056984;28;20831;-49
2024/03/25 04:59:32;;;;;;;0.30;0.20;;;;;;;3.56;92.21;99491.88;5071647;28;20458;-49
2024/03/25 05:01:57;;;;;;;0.30;0.20;;;;;;;3.60;92.31;99486.56;5071633;28;20465;-49
2024/03/25 05:04:24;;;;;;;0.30;0.13;;;;;;;3.69;92.73;99494.28;5071616;28;20494;-49
2024/03/25 05:06:50;;;;;;;0.30;0.20;;;;;;;3.47;92.10;99494.59;5071045;28;20240;-49
2024/03/25 05:09:16;;;;;;;0.30;0.20;;;;;;;3.73;93.03;99499.50;5071330;28;20958;-49
2024/03/25 05:11:42;;;;;;;0.20;0.10;;;;;;;3.60;94.72;99502.31;5060848;22;20240;-46
2024/03/25 05:14:07;;;;;;;0.30;0.10;;;;;;;3.63;94.75;99497.88;5024431;28;20462;-47
2024/03/25 05:16:33;;;;;;;0.30;0.20;;;;;;;3.66;94.44;99503.09;5021563;28;20220;-46
2024/03/25 05:18:58;;;;;;;0.30;0.10;;;;;;;3.73;94.05;99510.03;5035692;28;20216;-47
2024/03/25 05:21:24;;;;;;;0.30;0.20;;;;;;;3.55;92.77;99505.00;5035466;28;20379;-46
2024/03/25 05:23:50;;;;;;;0.30;0.20;;;;;;;3.63;93.03;99508.41;5035559;28;20307;-47
2024/03/25 05:26:15;;;;;;;0.30;0.10;;;;;;;3.77;93.32;99506.44;5035044;28;20240;-46
2024/03/25 05:28:41;;;;;;;0.30;0.10;;;;;;;3.86;93.72;99514.22;5035403;28;20252;-46
2024/03/25 05:31:07;;;;;;;0.30;0.10;;;;;;;3.76;92.81;99515.22;5035715;28;20780;-47
2024/03/25 05:33:33;;;;;;;0.30;0.10;;;;;;;3.59;92.90;99503.22;5035832;28;20232;-47
2024/03/25 05:35:59;;;;;;;0.30;0.10;;;;;;;3.57;92.51;99511.13;5036065;28;20459;-46
2024/03/25 05:38:25;;;;;;;0.30;0.10;;;;;;;3.49;92.54;99508.56;5035663;28;20212;-46
2024/03/25 05:40:50;;;;;;;0.30;0.10;;;;;;;3.60;92.53;99510.22;5018978;28;20513;-47
2024/03/25 05:43:16;;;;;;;0.20;0.10;;;;;;;3.46;91.87;99510.38;5018914;28;20216;-46
2024/03/25 05:45:50;;;;;;;0.30;0.20;;;;;;;4.27;90.84;99504.84;5036735;28;20319;-47
2024/03/25 05:48:16;;;;;;;0.30;0.20;;;;;;;3.76;90.35;99507.34;5038562;28;20220;-46
2024/03/25 05:50:41;;;;;;;0.30;0.10;;;;;;;3.76;92.12;99503.84;5036789;28;20689;-47
2024/03/25 05:53:08;;;;;;;0.20;0.10;;;;;;;3.61;92.28;99507.56;5035969;28;20215;-46
2024/03/25 05:55:33;;;;;;;0.20;0.20;;;;;;;3.78;91.80;99505.56;5035522;28;20750;-46
2024/03/25 05:57:59;;;;;;;0.20;0.10;;;;;;;3.91;92.17;99502.75;5036070;28;20459;-46
2024/03/25 06:00:26;;;;;;;0.30;0.10;;;;;;;3.83;91.49;99511.59;5006133;28;20294;-47
2024/03/25 06:02:53;;;;;;;0.30;0.10;;;;;;;3.93;92.13;99511.50;5020124;28;20227;-46
2024/03/25 06:05:19;;;;;;;0.30;0.20;;;;;;;3.76;91.37;99509.09;5039537;28;20486;-47
2024/03/25 06:07:45;;;;;;;0.30;0.13;;;;;;;3.84;91.44;99507.25;5039460;28;20605;-46
2024/03/25 06:10:10;;;;;;;0.30;0.20;;;;;;;3.94;91.55;99503.56;5039394;28;20478;-46
2024/03/25 06:12:36;;;;;;;0.30;0.20;;;;;;;4.13;92.00;99507.69;5023680;28;20255;-47
2024/03/25 06:15:02;;;;;;;0.30;0.20;;;;;;;4.05;93.09;99516.56;5042581;28;20739;-46
2024/03/25 06:17:27;;;;;;;0.30;0.20;;;;;;;4.28;93.34;99510.97;5042456;28;20294;-46
2024/03/25 06:19:53;;;;;;;0.30;0.20;;;;;;;4.38;92.95;99517.81;5043023;28;20705;-46
2024/03/25 06:22:18;;;;;;;0.30;0.17;;;;;;;4.36;92.70;99519.59;5043443;28;20260;-46
2024/03/25 06:24:44;;;;;;;0.30;0.20;;;;;;;4.55;92.71;99522.81;5044535;28;20584;-48
2024/03/25 06:27:10;;;;;;;0.30;0.20;;;;;;;4.71;92.79;99535.69;5044810;28;20247;-47
2024/03/25 06:29:35;;;;;;;0.20;0.10;;;;;;;4.92;91.94;99525.66;5045518;28;20614;-46
2024/03/25 06:34:45;;;;;;;0.30;0.20;;;;;;;5.16;90.38;99529.59;5045025;28;20684;-46
2024/03/25 06:37:11;;;;;;;0.30;0.10;;;;;;;5.25;90.57;99534.72;5041149;28;20497;-47
2024/03/25 06:39:36;;;;;;;0.30;0.20;;;;;;;5.53;90.10;99535.03;5038915;28;20300;-48
2024/03/25 06:42:02;;;;;;;0.30;0.20;;;;;;;5.39;89.26;99535.31;5022366;28;20319;-47
2024/03/25 06:44:28;;;;;;;0.30;0.20;;;;;;;5.62;88.52;99534.84;5039186;28;20571;-47
2024/03/25 06:46:53;;;;;;;0.30;0.10;;;;;;;5.89;88.71;99528.09;5038329;28;20236;-47
2024/03/25 06:49:18;;;;;;;0.30;0.20;;;;;;;5.86;87.83;99529.03;5038495;28;20354;-47
2024/03/25 06:51:44;;;;;;;0.30;0.17;;;;;;;5.88;88.34;99535.13;5038175;28;20739;-46
2024/03/25 06:54:10;;;;;;;0.30;0.10;;;;;;;6.04;88.03;99530.47;5038621;28;20295;-47
2024/03/25 06:56:35;;;;;;;0.30;0.20;;;;;;;6.06;87.97;99543.59;5037986;28;20224;-46
2024/03/25 06:59:00;;;;;;;0.30;0.10;;;;;;;6.20;87.32;99537.13;5037792;28;20350;-47
2024/03/25 07:01:26;;;;;;;0.30;0.20;;;;;;;6.24;86.55;99532.63;5038726;28;20330;-46
2024/03/25 07:03:53;;;;;;;0.30;0.20;;;;;;;6.22;87.43;99534.44;5037892;28;20308;-46
2024/03/25 07:06:19;;;;;;;0.30;0.20;;;;;;;6.22;87.61;99530.03;5037666;28;20236;-47
2024/03/25 07:08:44;;;;;;;0.30;0.10;;;;;;;6.26;87.48;99530.81;5037867;28;20455;-46
2024/03/25 07:11:10;;;;;;;0.30;0.10;;;;;;;6.53;87.75;99537.19;5037476;28;20290;-47
2024/03/25 07:13:35;;;;;;;0.30;0.20;;;;;;;6.57;86.11;99545.91;5037331;28;20219;-47
2024/03/25 07:16:01;;;;;;;0.30;0.10;;;;;;;6.63;85.34;99545.78;5037366;28;20208;-47
2024/03/25 07:18:26;;;;;;;0.30;0.10;;;;;;;6.72;83.16;99545.56;5021130;28;20224;-46
2024/03/25 07:20:52;;;;;;;0.30;0.20;;;;;;;6.88;83.00;99543.41;5037607;28;20740;-46
2024/03/25 07:23:17;;;;;;;0.30;0.20;;;;;;;6.88;82.92;99548.69;5037528;28;20224;-46
2024/03/25 07:25:43;;;;;;;0.30;0.20;;;;;;;7.14;82.45;99554.16;5037389;28;20640;-46
2024/03/25 07:28:09;;;;;;;0.30;0.20;;;;;;;7.08;82.55;99549.88;5037210;28;20212;-47
2024/03/25 07:30:35;;;;;;;0.30;0.20;;;;;;;7.25;80.91;99545.91;5037783;28;20483;-46
2024/03/25 07:33:00;;;;;;;0.30;0.20;;;;;;;7.25;79.65;99540.63;5037248;28;20684;-47
2024/03/25 07:35:26;;;;;;;0.30;0.20;;;;;;;7.10;80.44;99542.78;5020950;28;20251;-47
2024/03/25 07:37:52;;;;;;;0.30;0.20;;;;;;;7.34;80.81;99535.09;5038590;28;20208;-47
2024/03/25 07:40:18;;;;;;;0.30;0.20;;;;;;;7.21;81.05;99533.69;5037562;28;20236;-47
2024/03/25 07:42:44;;;;;;;0.30;0.20;;;;;;;7.46;79.37;99534.75;5037154;28;20228;-48
2024/03/25 07:45:09;;;;;;;0.30;0.20;;;;;;;7.53;79.56;99531.00;5036954;28;20942;-47
2024/03/25 07:47:35;;;;;;;0.30;0.20;;;;;;;7.79;78.13;99532.91;5036756;28;20262;-47
2024/03/25 07:50:01;;;;;;;0.30;0.20;;;;;;;8.09;75.95;99525.00;5036453;28;20216;-47
2024/03/25 07:52:27;;;;;;;0.30;0.20;;;;;;;8.06;75.25;99530.34;5036828;28;20221;-50
2024/03/25 07:54:53;;;;;;;0.30;0.20;;;;;;;8.02;76.56;99525.16;5036281;28;20528;-50
2024/03/25 07:57:22;;;;;;;0.30;0.20;;;;;;;8.12;77.26;99522.25;5036850;28;20454;-49
2024/03/25 07:59:47;;;;;;;0.30;0.20;;;;;;;8.19;76.61;99513.19;5036360;28;20524;-49
2024/03/25 08:02:13;;;;;;;0.30;0.20;;;;;;;8.43;76.22;99511.56;5036866;28;20459;-49
2024/03/25 08:04:39;;;;;;;0.30;0.20;;;;;;;8.06;75.95;99515.34;5036833;28;20255;-49
2024/03/25 08:07:05;;;;;;;0.30;0.20;;;;;;;8.35;75.50;99519.75;5037764;28;20270;-49
2024/03/25 08:09:30;;;;;;;0.30;0.20;;;;;;;8.57;75.30;99509.34;5036660;28;20494;-50
2024/03/25 08:11:56;;;;;;;0.30;0.20;;;;;;;8.55;74.35;99509.38;5035737;28;20254;-50
2024/03/25 08:14:22;;;;;;;0.30;0.20;;;;;;;8.68;75.80;99509.84;5036910;28;20226;-49
2024/03/25 08:16:47;;;;;;;0.30;0.20;;;;;;;8.69;77.82;99510.72;5036553;28;20212;-50
2024/03/25 08:19:13;;;;;;;0.30;0.20;;;;;;;8.74;77.47;99512.28;5036049;28;20962;-49
2024/03/25 08:21:38;;;;;;;0.30;0.20;;;;;;;8.55;77.07;99521.78;5036622;28;20327;-49
2024/03/25 08:24:04;;;;;;;0.30;0.20;;;;;;;8.57;78.39;99518.16;5036260;28;20263;-50
2024/03/25 08:26:30;;;;;;;0.30;0.20;;;;;;;9.05;77.00;99514.78;5034656;28;20232;-50
2024/03/25 08:28:55;;;;;;;0.30;0.20;;;;;;;8.99;78.38;99520.25;5035902;28;20463;-50
2024/03/25 08:31:21;;;;;;;0.30;0.20;;;;;;;9.27;77.98;99516.66;5035977;28;20285;-50
2024/03/25 08:33:46;;;;;;;0.30;0.20;;;;;;;9.51;77.01;99518.41;5035834;28;20277;-50
2024/03/25 08:36:12;;;;;;;0.30;0.20;;;;;;;9.31;76.52;99513.81;5035636;28;20212;-49
2024/03/25 08:38:38;;;;;;;0.30;0.20;;;;;;;9.42;75.67;99513.44;5035538;28;20226;-49
2024/03/25 08:41:04;;;;;;;0.30;0.20;;;;;;;9.48;76.90;99522.06;5035514;28;20246;-49
2024/03/25 08:43:29;;;;;;;0.30;0.20;;;;;;;10.03;74.14;99511.16;5035706;28;20463;-50
2024/03/25 08:45:55;;;;;;;0.30;0.20;;;;;;;9.76;73.34;99508.63;5035390;28;20494;-49
2024/03/25 08:48:21;;;;;;;0.30;0.20;;;;;;;9.76;72.34;99510.41;5035122;28;20208;-49
2024/03/25 08:50:47;;;;;;;0.30;0.20;;;;;;;10.09;72.09;99502.94;5035253;28;20331;-49
2024/03/25 08:53:12;;;;;;;0.30;0.20;;;;;;;9.84;74.86;99510.97;5035411;28;20212;-49
2024/03/25 08:55:38;;;;;;;0.30;0.20;;;;;;;9.65;75.63;99508.16;5035253;28;20208;-49
2024/03/25 08:58:03;;;;;;;0.30;0.20;;;;;;;9.92;74.96;99505.38;5035219;28;20216;-49
2024/03/25 09:00:29;;;;;;;0.30;0.20;;;;;;;10.14;73.58;99497.44;5035194;28;20232;-49
2024/03/25 09:02:54;;;;;;;0.30;0.20;;;;;;;10.58;71.52;99493.91;5035253;28;20494;-49
2024/03/25 09:05:21;;;;;;;0.30;0.20;;;;;;;10.28;70.82;99488.03;5035145;28;20773;-48
2024/03/25 09:07:51;;;;;;;0.30;0.20;;;;;;;10.39;70.73;99491.09;5018186;28;20620;-49
2024/03/25 09:13:04;;;;;;;0.30;0.20;;;;;;;10.35;70.76;99489.50;5035062;28;20463;-49
2024/03/25 09:15:30;;;;;;;0.30;0.20;;;;;;;10.32;71.59;99481.66;5034684;28;21035;-49
2024/03/25 09:17:56;;;;;;;0.30;0.20;;;;;;;10.40;71.03;99486.66;5034755;28;20212;-49
2024/03/25 09:20:22;;;;;;;0.30;0.20;;;;;;;10.70;69.83;99481.88;5034907;28;20236;-49
2024/03/25 09:22:48;;;;;;;0.30;0.20;;;;;;;10.98;67.45;99476.25;5034687;28;20216;-49
2024/03/25 09:25:15;;;;;;;0.30;0.20;;;;;;;10.83;64.93;99466.28;5034547;28;20232;-49
2024/03/25 09:27:40;;;;;;;0.30;0.20;;;;;;;10.90;67.89;99459.75;5034743;28;20463;-49
2024/03/25 09:30:08;;;;;;;0.30;0.20;;;;;;;10.88;66.87;99459.84;5034516;28;20835;-49
2024/03/25 09:32:34;;;;;;;0.30;0.20;;;;;;;10.95;62.97;99455.97;5034597;28;20235;-49
2024/03/25 09:35:00;;;;;;;0.30;0.20;;;;;;;11.61;62.29;99454.81;5034821;28;20549;-50
2024/03/25 09:37:26;;;;;;;0.30;0.20;;;;;;;11.78;61.03;99445.09;5034449;28;20860;-50
2024/03/25 09:39:52;;;;;;;0.30;0.20;;;;;;;11.09;62.72;99446.50;5034598;28;20235;-50
2024/03/25 09:42:47;;;;;;;0.30;0.20;;;;;;;11.28;61.55;99444.78;5034499;28;20467;-49
2024/03/25 09:45:16;;;;;;;0.30;0.20;;;;;;;11.72;61.92;99439.19;5034190;28;20609;-49
2024/03/25 09:47:45;;;;;;;0.30;0.20;;;;;;;11.30;61.46;99439.38;5034402;28;20466;-49
2024/03/25 09:50:13;;;;;;;0.30;0.20;;;;;;;11.35;62.70;99435.56;5034281;28;20541;-49
2024/03/25 09:52:39;;;;;;;0.30;0.20;;;;;;;11.38;61.35;99426.59;5034281;28;20959;-50
2024/03/25 09:55:06;;;;;;;0.30;0.20;;;;;;;11.16;62.61;99429.38;5034297;28;20466;-49
2024/03/25 09:57:32;;;;;;;0.30;0.20;;;;;;;11.44;61.67;99421.00;5034494;28;20463;-49
2024/03/25 09:59:57;;;;;;;0.30;0.20;;;;;;;11.73;60.94;99419.63;5034326;28;20457;-49
2024/03/25 10:02:26;;;;;;;0.30;0.20;;;;;;;11.44;60.57;99416.53;5034559;28;20689;-49
2024/03/25 10:04:52;;;;;;;0.30;0.20;;;;;;;11.35;61.63;99411.63;5034679;28;20224;-49
2024/03/25 10:07:27;;;;;;;0.30;0.20;;;;;;;11.73;59.14;99407.19;5034456;28;20454;-49
2024/03/25 10:09:53;;;;;;;0.30;0.20;;;;;;;11.81;57.89;99409.53;5033964;28;20218;-49
2024/03/25 10:12:19;;;;;;;0.30;0.20;;;;;;;12.35;56.13;99410.44;5034370;28;20451;-49
2024/03/25 10:14:45;;;;;;;0.30;0.20;;;;;;;11.98;54.66;99411.38;5034151;28;20216;-48
2024/03/25 10:17:11;;;;;;;0.30;0.20;;;;;;;12.17;54.24;99398.84;5034039;28;20491;-50
2024/03/25 10:19:37;;;;;;;0.30;0.20;;;;;;;12.26;55.41;99395.75;5034266;28;20542;-49
2024/03/25 10:22:07;;;;;;;0.30;0.20;;;;;;;12.34;54.37;99398.03;5033923;28;20236;-50
2024/03/25 10:24:40;;;;;;;0.30;0.20;;;;;;;12.77;53.71;99387.84;5034236;28;20266;-49
2024/03/25 10:27:09;;;;;;;0.30;0.20;;;;;;;12.28;54.05;99380.53;5033930;28;20495;-50
2024/03/25 10:29:35;;;;;;;0.30;0.20;;;;;;;12.39;53.32;99385.34;5033984;28;20470;-49
2024/03/25 10:32:01;;;;;;;0.30;0.20;;;;;;;12.52;54.42;99385.59;5034175;28;20483;-49
2024/03/25 10:34:27;;;;;;;0.30;0.20;;;;;;;13.11;52.82;99377.09;5029506;28;20588;-49
2024/03/25 10:36:56;;;;;;;0.30;0.20;;;;;;;12.93;51.52;99375.44;5031551;28;20450;-49
2024/03/25 10:39:26;;;;;;;0.30;0.20;;;;;;;13.24;52.18;99370.19;5034068;28;20274;-49
2024/03/25 10:41:56;;;;;;;0.30;0.20;;;;;;;13.20;52.75;99362.47;5033929;28;20482;-49
2024/03/25 10:44:22;;;;;;;0.30;0.20;;;;;;;13.62;50.85;99362.75;5034034;28;20459;-49
2024/03/25 10:46:53;;;;;;;0.30;0.20;;;;;;;13.59;50.20;99367.41;5033603;28;20491;-48
2024/03/25 10:49:31;;;;;;;0.30;0.20;;;;;;;13.24;49.04;99350.66;5035687;28;20496;-49
2024/03/25 10:52:00;;;;;;;0.30;0.20;;;;;;;13.58;49.94;99357.69;5037393;28;20457;-49
2024/03/25 10:54:29;;;;;;;0.30;0.20;;;;;;;13.97;46.99;99348.34;5037400;28;20823;-49
2024/03/25 10:56:57;;;;;;;0.30;0.20;;;;;;;13.91;46.86;99352.22;5037491;28;20458;-49
2024/03/25 10:59:24;;;;;;;0.30;0.20;;;;;;;13.71;46.57;99340.03;5037386;28;20948;-50
2024/03/25 11:01:50;;;;;;;0.30;0.20;;;;;;;13.54;45.86;99335.59;5037649;28;20483;-49
2024/03/25 11:04:15;;;;;;;0.30;0.20;;;;;;;13.08;47.06;99331.06;5037598;28;20461;-49
2024/03/25 11:06:41;;;;;;;0.30;0.20;;;;;;;13.08;47.07;99328.41;5037098;28;20596;-49
2024/03/25 11:09:06;;;;;;;0.30;0.20;;;;;;;13.71;48.57;99326.66;5037315;28;20219;-50
2024/03/25 11:11:35;;;;;;;0.30;0.20;;;;;;;13.22;47.76;99325.88;5038910;22;20317;-51
2024/03/25 11:14:04;;;;;;;0.30;0.20;;;;;;;13.99;46.62;99319.75;5017734;28;20225;-49
2024/03/25 11:16:31;;;;;;;0.30;0.20;;;;;;;13.80;47.47;99304.75;5004240;28;20459;-49
2024/03/25 11:19:03;;;;;;;0.30;0.20;;;;;;;14.37;47.26;99298.75;5017521;28;20464;-49
2024/03/25 11:21:29;;;;;;;0.30;0.20;;;;;;;14.24;47.39;99298.63;5016720;28;20928;-50
2024/03/25 11:23:54;;;;;;;0.30;0.20;;;;;;;13.74;45.96;99291.78;5017512;28;20456;-50
2024/03/25 11:26:22;;;;;;;0.30;0.20;;;;;;;14.18;47.50;99289.16;5017058;28;20717;-50
2024/03/25 11:28:49;;;;;;;0.30;0.20;;;;;;;14.10;46.71;99293.22;5017170;28;20217;-50
2024/03/25 11:31:15;;;;;;;0.30;0.20;;;;;;;14.04;45.67;99293.59;5017136;28;20488;-50
2024/03/25 11:33:41;;;;;;;0.30;0.20;;;;;;;13.42;45.89;99296.25;5016919;28;20960;-50
2024/03/25 11:36:07;;;;;;;0.30;0.20;;;;;;;13.54;46.96;99289.34;5016971;28;20462;-50
2024/03/25 11:38:33;;;;;;;0.30;0.20;;;;;;;14.06;49.02;99287.22;5016757;28;20976;-50
2024/03/25 11:41:00;;;;;;;0.30;0.20;;;;;;;13.79;48.79;99283.47;5016612;28;20988;-50